Time;durP1;ratioP1;P1;durP2;ratioP2;P2;SDS_P1;SDS_P2;PMS_P1;PMS_P2;Temp;Humidity;BMP_temperature;BMP_pressure;BME280_temperature;BME280_humidity;BME280_pressure;Samples;Min_cycle;Max_cycle;Signal;HPM_P1;HPM_P2
2022/09/30 00:00:13;;;;;;;1.50;1.40;;;20.50;47.50;;;;;;5051030;28;20118;-10
2022/09/30 00:02:38;;;;;;;1.65;1.50;;;20.40;47.40;;;;;;5051039;28;20057;-10
2022/09/30 00:05:04;;;;;;;1.45;1.30;;;20.40;47.50;;;;;;5051366;28;20091;-10
2022/09/30 00:07:30;;;;;;;2.63;1.77;;;20.50;47.40;;;;;;5050939;28;20049;-10
2022/09/30 00:09:56;;;;;;;1.73;1.45;;;20.50;47.40;;;;;;5051397;28;20502;-10
2022/09/30 00:12:22;;;;;;;1.73;1.48;;;20.40;47.40;;;;;;5050755;28;20085;-10
2022/09/30 00:14:47;;;;;;;1.30;1.20;;;20.40;47.40;;;;;;5050951;28;20054;-10
2022/09/30 00:17:13;;;;;;;1.75;1.40;;;20.50;47.40;;;;;;5050760;28;20045;-10
2022/09/30 00:19:39;;;;;;;1.42;1.30;;;20.50;47.40;;;;;;5050545;28;20057;-10
2022/09/30 00:22:04;;;;;;;2.50;1.70;;;20.40;47.40;;;;;;5050815;28;20053;-10
2022/09/30 00:24:30;;;;;;;1.58;1.30;;;20.40;47.40;;;;;;5051347;28;20060;-10
2022/09/30 00:26:56;;;;;;;1.70;1.27;;;20.40;47.50;;;;;;5050987;28;20049;-10
2022/09/30 00:29:21;;;;;;;1.50;1.40;;;20.40;47.40;;;;;;5050651;28;20053;-10
2022/09/30 00:31:47;;;;;;;2.67;1.77;;;20.40;47.40;;;;;;5050754;28;20051;-10
2022/09/30 00:34:12;;;;;;;1.70;1.60;;;20.40;47.40;;;;;;5050677;28;20061;-10
2022/09/30 00:36:42;;;;;;;1.63;1.30;;;20.40;47.40;;;;;;5050983;28;20045;-10
2022/09/30 00:39:10;;;;;;;1.90;1.52;;;20.40;47.40;;;;;;5051033;28;20049;-10
2022/09/30 00:41:36;;;;;;;2.00;1.80;;;20.40;47.40;;;;;;5051129;28;20057;-10
2022/09/30 00:44:39;;;;;;;1.85;1.75;;;20.40;47.40;;;;;;5050428;28;20498;-10
2022/09/30 00:47:35;;;;;;;1.60;1.50;;;20.40;47.30;;;;;;5050256;28;20074;-11
2022/09/30 00:50:19;;;;;;;1.70;1.60;;;20.40;47.30;;;;;;5050388;28;20053;-10
2022/09/30 00:52:52;;;;;;;1.52;1.42;;;20.40;47.40;;;;;;5050445;28;20095;-10
2022/09/30 00:55:45;;;;;;;2.03;1.50;;;20.40;47.40;;;;;;5050712;28;20044;-10
2022/09/30 00:58:17;;;;;;;1.60;1.30;;;20.40;47.40;;;;;;5050254;28;20478;-10
2022/09/30 01:00:43;;;;;;;1.50;1.40;;;20.40;47.30;;;;;;5050324;28;20495;-10
2022/09/30 01:03:09;;;;;;;1.65;1.55;;;20.40;47.30;;;;;;5050596;28;20076;-10
2022/09/30 01:05:34;;;;;;;1.30;1.20;;;20.40;47.30;;;;;;5050291;28;20049;-10
2022/09/30 01:08:04;;;;;;;2.00;1.77;;;20.40;47.40;;;;;;5050130;28;20075;-10
2022/09/30 01:10:29;;;;;;;2.08;1.40;;;20.40;47.40;;;;;;5032735;28;20110;-10
2022/09/30 01:12:56;;;;;;;1.85;1.50;;;20.40;47.90;;;;;;5050270;28;20057;-10
2022/09/30 01:15:43;;;;;;;1.42;1.30;;;20.40;47.30;;;;;;5050557;28;20053;-10
2022/09/30 01:18:24;;;;;;;1.38;1.27;;;20.40;47.40;;;;;;5050168;28;20402;-10
2022/09/30 01:21:07;;;;;;;1.50;1.40;;;20.40;47.40;;;;;;5050084;28;20127;-10
2022/09/30 01:23:47;;;;;;;2.65;1.50;;;20.40;47.40;;;;;;5049736;28;20057;-10
2022/09/30 01:26:48;;;;;;;1.45;1.35;;;20.40;47.40;;;;;;5049989;28;20418;-10
2022/09/30 01:29:37;;;;;;;2.10;1.88;;;20.40;47.40;;;;;;5049839;28;20527;-10
2022/09/30 01:32:28;;;;;;;1.65;1.55;;;20.40;47.40;;;;;;5052656;28;20101;-10
2022/09/30 01:35:05;;;;;;;1.92;1.58;;;20.40;47.40;;;;;;5050193;28;20057;-10
2022/09/30 01:38:05;;;;;;;2.38;1.40;;;20.40;47.40;;;;;;5049003;28;20049;-10
2022/09/30 01:40:34;;;;;;;1.50;1.40;;;20.40;47.50;;;;;;5049732;28;20059;-10
2022/09/30 01:43:21;;;;;;;1.95;1.70;;;20.40;47.50;;;;;;5050116;28;20049;-10
2022/09/30 01:46:02;;;;;;;1.35;1.25;;;20.40;47.50;;;;;;5050393;28;20052;-10
2022/09/30 01:49:00;;;;;;;1.40;1.30;;;20.40;47.50;;;;;;5049510;28;20086;-10
2022/09/30 01:51:34;;;;;;;1.40;1.30;;;20.40;47.50;;;;;;5050468;28;20498;-10
2022/09/30 01:54:12;;;;;;;1.45;1.35;;;20.40;47.50;;;;;;5049641;28;20049;-10
2022/09/30 01:56:43;;;;;;;2.72;1.42;;;20.40;47.50;;;;;;5050056;28;20056;-10
2022/09/30 01:59:41;;;;;;;1.30;1.20;;;20.40;47.50;;;;;;5049496;28;20053;-10
2022/09/30 02:02:20;;;;;;;1.55;1.40;;;20.40;47.50;;;;;;5049417;28;20053;-11
2022/09/30 02:05:15;;;;;;;1.67;1.20;;;20.30;47.50;;;;;;5049382;28;20490;-10
2022/09/30 02:07:46;;;;;;;1.90;1.40;;;20.30;47.50;;;;;;5049680;28;20060;-10
2022/09/30 02:10:17;;;;;;;;;;;20.30;47.50;;;;;;5050107;28;20112;-10
2022/09/30 02:12:48;;;;;;;1.73;1.58;;;20.30;47.60;;;;;;5049284;28;19921;-10
2022/09/30 02:15:24;;;;;;;1.58;1.35;;;20.30;47.50;;;;;;5049611;28;20097;-10
2022/09/30 02:18:03;;;;;;;1.98;1.40;;;20.30;47.50;;;;;;5049097;28;20049;-10
2022/09/30 02:20:37;;;;;;;1.52;1.30;;;20.30;47.50;;;;;;5049522;28;20504;-10
2022/09/30 02:23:24;;;;;;;1.38;1.27;;;20.30;47.50;;;;;;5049191;28;20056;-10
2022/09/30 02:26:06;;;;;;;1.65;1.30;;;20.30;47.50;;;;;;5048882;28;20052;-10
2022/09/30 02:28:32;;;;;;;;;;;20.30;47.50;;;;;;5049285;28;20148;-10
2022/09/30 02:31:01;;;;;;;1.58;1.45;;;20.30;47.50;;;;;;5048713;28;19917;-10
2022/09/30 02:34:00;;;;;;;1.85;1.35;;;20.30;47.50;;;;;;5049281;28;20056;-10
2022/09/30 02:36:36;;;;;;;1.80;1.42;;;20.30;47.60;;;;;;5056762;28;20049;-10
2022/09/30 02:39:09;;;;;;;1.50;1.40;;;20.30;47.50;;;;;;5048776;28;20049;-10
2022/09/30 02:41:43;;;;;;;1.40;1.30;;;20.30;47.60;;;;;;5048916;28;20052;-10
2022/09/30 02:44:09;;;;;;;1.17;1.08;;;20.30;47.50;;;;;;5048788;28;20555;-10
2022/09/30 02:46:57;;;;;;;1.65;1.40;;;20.30;47.60;;;;;;5048823;28;20087;-10
2022/09/30 02:49:31;;;;;;;1.10;1.00;;;20.20;47.60;;;;;;5050010;28;20049;-10
2022/09/30 02:52:21;;;;;;;1.65;1.40;;;20.30;47.50;;;;;;5051816;28;20057;-10
2022/09/30 02:55:12;;;;;;;1.80;1.40;;;20.40;47.50;;;;;;5051811;28;20060;-10
2022/09/30 02:57:48;;;;;;;2.05;1.27;;;20.40;47.30;;;;;;5051585;28;20143;-10
2022/09/30 03:00:15;;;;;;;1.83;1.35;;;20.40;47.20;;;;;;5051769;28;20136;-10
2022/09/30 03:02:41;;;;;;;1.50;1.40;;;20.50;47.20;;;;;;5052157;28;20088;-10
2022/09/30 03:05:08;;;;;;;1.35;1.25;;;20.50;47.00;;;;;;5051720;28;20451;-10
2022/09/30 03:07:35;;;;;;;1.42;1.33;;;20.60;47.00;;;;;;5051785;28;20143;-10
2022/09/30 03:10:00;;;;;;;1.63;1.35;;;20.60;46.80;;;;;;5051673;28;20506;-10
2022/09/30 03:12:44;;;;;;;1.45;1.35;;;20.60;46.80;;;;;;5051885;28;20086;-10
2022/09/30 03:15:20;;;;;;;1.35;1.25;;;20.70;46.70;;;;;;5051870;28;20401;-10
2022/09/30 03:18:15;;;;;;;1.27;1.17;;;20.70;46.60;;;;;;5051357;28;20045;-10
2022/09/30 03:21:08;;;;;;;2.05;1.10;;;20.80;46.60;;;;;;5051516;28;20059;-10
2022/09/30 03:23:50;;;;;;;1.00;0.85;;;20.80;46.50;;;;;;5051202;28;20137;-10
2022/09/30 03:26:58;;;;;;;1.15;1.10;;;20.90;46.50;;;;;;5051828;28;20059;-10
2022/09/30 03:29:39;;;;;;;1.73;1.25;;;20.90;46.50;;;;;;5052596;28;20057;-10
2022/09/30 03:32:42;;;;;;;1.10;1.00;;;20.90;46.40;;;;;;5051600;28;20409;-10
2022/09/30 03:35:19;;;;;;;1.92;1.45;;;21.00;46.40;;;;;;5051931;28;20053;-10
2022/09/30 03:37:57;;;;;;;1.52;1.10;;;21.00;46.40;;;;;;5051207;28;20085;-10
2022/09/30 03:40:56;;;;;;;1.30;1.20;;;21.00;46.30;;;;;;5051300;28;20056;-10
2022/09/30 03:43:58;;;;;;;1.40;1.30;;;21.00;46.30;;;;;;5051119;28;20406;-10
2022/09/30 03:46:40;;;;;;;1.50;1.40;;;21.00;46.30;;;;;;5062085;28;20077;-10
2022/09/30 03:49:12;;;;;;;1.30;1.20;;;21.00;46.20;;;;;;5051207;28;20064;-10
2022/09/30 03:51:39;;;;;;;1.42;1.25;;;21.00;46.20;;;;;;5051238;28;20060;-10
2022/09/30 03:54:09;;;;;;;1.25;1.10;;;21.00;46.20;;;;;;5051340;28;20106;-10
2022/09/30 03:56:36;;;;;;;1.40;1.25;;;21.00;46.20;;;;;;5051031;28;20093;-10
2022/09/30 03:59:02;;;;;;;1.38;1.27;;;21.00;46.20;;;;;;5050816;28;20080;-10
2022/09/30 04:01:28;;;;;;;1.23;1.10;;;21.00;46.20;;;;;;5050676;28;20045;-10
2022/09/30 04:03:54;;;;;;;1.27;1.17;;;21.00;46.20;;;;;;5051333;28;20057;-10
2022/09/30 04:06:23;;;;;;;1.88;1.15;;;21.00;46.30;;;;;;5050928;28;20045;-10
2022/09/30 04:08:52;;;;;;;1.40;1.20;;;20.90;46.20;;;;;;5050821;28;20494;-10
2022/09/30 04:11:21;;;;;;;1.40;1.23;;;20.90;46.30;;;;;;5050815;28;20065;-10
2022/09/30 04:13:47;;;;;;;1.30;1.20;;;20.90;46.30;;;;;;5050688;28;20059;-10
2022/09/30 04:16:13;;;;;;;1.25;1.13;;;20.90;46.30;;;;;;5050635;28;20053;-10
2022/09/30 04:18:39;;;;;;;1.52;1.27;;;20.90;46.40;;;;;;5050753;28;20064;-10
2022/09/30 04:21:06;;;;;;;1.55;1.20;;;20.90;46.40;;;;;;5050600;28;20052;-10
2022/09/30 04:23:36;;;;;;;1.95;1.30;;;20.90;46.50;;;;;;5050959;28;20076;-10
2022/09/30 04:26:02;;;;;;;1.33;1.20;;;20.80;46.50;;;;;;5050952;28;20060;-10
2022/09/30 04:28:28;;;;;;;1.67;1.27;;;20.80;46.40;;;;;;5050662;28;20439;-10
2022/09/30 04:30:53;;;;;;;0.90;0.90;;;20.80;46.50;;;;;;5050189;28;20056;-10
2022/09/30 04:33:19;;;;;;;1.00;1.00;;;20.80;46.50;;;;;;5050669;28;20057;-10
2022/09/30 04:35:44;;;;;;;1.35;1.20;;;20.80;46.50;;;;;;5051159;28;20056;-10
2022/09/30 04:38:10;;;;;;;2.25;1.55;;;20.80;46.60;;;;;;5050794;28;20052;-10
2022/09/30 04:40:37;;;;;;;1.88;1.15;;;20.70;46.60;;;;;;5050384;28;20057;-10
2022/09/30 04:43:03;;;;;;;1.55;1.40;;;20.70;46.60;;;;;;5051020;28;20135;-10
2022/09/30 04:45:29;;;;;;;1.50;1.33;;;20.70;46.70;;;;;;5050412;28;20041;-10
2022/09/30 04:47:54;;;;;;;1.38;1.20;;;20.60;46.80;;;;;;5050568;28;20470;-10
2022/09/30 04:50:21;;;;;;;1.50;1.35;;;20.60;46.80;;;;;;5050209;28;20048;-10
2022/09/30 04:52:49;;;;;;;1.08;1.08;;;20.60;46.80;;;;;;5050171;28;20049;-10
2022/09/30 04:55:14;;;;;;;1.40;1.30;;;20.70;46.80;;;;;;5050721;28;20136;-10
2022/09/30 04:57:44;;;;;;;1.52;1.42;;;20.70;46.70;;;;;;5050576;28;20498;-10
2022/09/30 05:00:10;;;;;;;1.33;1.23;;;20.70;46.70;;;;;;5050499;28;20045;-10
2022/09/30 05:02:35;;;;;;;1.10;1.00;;;20.70;46.70;;;;;;5050227;28;20095;-10
2022/09/30 05:05:01;;;;;;;1.73;1.45;;;20.70;46.60;;;;;;5050339;28;20494;-10
2022/09/30 05:07:29;;;;;;;1.27;1.17;;;20.70;46.60;;;;;;5050768;28;20391;-10
2022/09/30 05:09:54;;;;;;;1.20;1.10;;;20.70;46.60;;;;;;5050392;28;20056;-10
2022/09/30 05:12:20;;;;;;;2.03;1.30;;;20.80;46.60;;;;;;5049304;28;20410;-10
2022/09/30 05:14:45;;;;;;;1.50;1.23;;;20.80;46.50;;;;;;5050086;28;20056;-10
2022/09/30 05:17:11;;;;;;;1.95;1.30;;;20.80;46.50;;;;;;5049997;28;20137;-10
2022/09/30 05:19:37;;;;;;;1.05;0.98;;;20.80;46.50;;;;;;5049917;28;20504;-10
2022/09/30 05:22:02;;;;;;;0.90;0.90;;;20.80;46.40;;;;;;5050622;28;20045;-10
2022/09/30 05:24:29;;;;;;;1.15;1.05;;;20.80;46.30;;;;;;5050067;28;20089;-10
2022/09/30 05:26:55;;;;;;;1.08;0.98;;;20.80;46.30;;;;;;5049892;28;20128;-10
2022/09/30 05:29:21;;;;;;;1.02;0.98;;;20.80;46.40;;;;;;5049974;28;20084;-10
2022/09/30 05:31:46;;;;;;;1.20;1.10;;;20.80;46.40;;;;;;5050427;28;20063;-10
2022/09/30 05:34:15;;;;;;;1.33;1.23;;;20.90;46.40;;;;;;5049954;28;20406;-10
2022/09/30 05:36:42;;;;;;;1.35;1.25;;;20.80;46.30;;;;;;5050227;28;20084;-10
2022/09/30 05:39:08;;;;;;;1.73;1.50;;;20.90;46.40;;;;;;5049826;28;20493;-10
2022/09/30 05:41:34;;;;;;;1.45;1.30;;;20.90;46.40;;;;;;5049716;28;20056;-10
2022/09/30 05:44:01;;;;;;;1.40;1.30;;;20.90;46.40;;;;;;5049816;28;20410;-10
2022/09/30 05:46:28;;;;;;;1.30;1.20;;;20.90;46.40;;;;;;5049793;28;20083;-10
2022/09/30 05:48:54;;;;;;;4.00;1.20;;;20.90;46.40;;;;;;5049644;28;20067;-10
2022/09/30 05:51:22;;;;;;;1.60;1.40;;;20.90;46.30;;;;;;5049438;28;20064;-10
2022/09/30 05:53:47;;;;;;;1.17;0.90;;;21.00;46.20;;;;;;5048478;28;20057;-10
2022/09/30 05:56:13;;;;;;;1.27;1.10;;;21.00;46.10;;;;;;5049244;28;20060;-10
2022/09/30 05:58:40;;;;;;;1.20;1.10;;;21.10;46.00;;;;;;5049451;28;20097;-10
2022/09/30 06:01:09;;;;;;;1.73;1.20;;;21.10;45.90;;;;;;5049192;28;20135;-10
2022/09/30 06:03:35;;;;;;;1.10;1.00;;;21.10;45.80;;;;;;5049629;28;20110;-10
2022/09/30 06:06:01;;;;;;;1.42;1.00;;;21.20;45.80;;;;;;5049765;28;20061;-10
2022/09/30 06:08:27;;;;;;;1.70;1.35;;;21.30;45.70;;;;;;5049027;28;20515;-10
2022/09/30 06:10:52;;;;;;;1.20;1.10;;;21.40;45.50;;;;;;5046345;28;20060;-10
2022/09/30 06:13:20;;;;;;;2.45;1.42;;;21.40;45.40;;;;;;5049526;28;20061;-10
2022/09/30 06:15:55;;;;;;;1.40;1.30;;;21.40;45.30;;;;;;5049648;28;20068;-10
2022/09/30 06:18:21;;;;;;;1.17;1.10;;;21.50;45.10;;;;;;5048880;28;20078;-10
2022/09/30 06:20:47;;;;;;;1.45;1.20;;;21.50;45.00;;;;;;5048860;28;20409;-10
2022/09/30 06:23:13;;;;;;;1.38;0.98;;;21.60;45.00;;;;;;5049735;28;20128;-10
2022/09/30 06:25:38;;;;;;;1.55;1.10;;;21.70;44.90;;;;;;5051875;28;20078;-10
2022/09/30 06:28:04;;;;;;;1.35;1.10;;;21.70;44.80;;;;;;5051854;28;20049;-11
2022/09/30 06:30:29;;;;;;;1.10;1.00;;;21.80;44.70;;;;;;5052044;28;20455;-10
2022/09/30 06:32:58;;;;;;;1.02;0.90;;;21.80;44.60;;;;;;5051817;28;20064;-10
2022/09/30 06:35:25;;;;;;;1.17;1.08;;;21.90;44.50;;;;;;5051872;28;20049;-10
2022/09/30 06:37:51;;;;;;;1.20;1.10;;;21.90;44.40;;;;;;5051812;28;20433;-10
2022/09/30 06:40:16;;;;;;;0.85;0.85;;;22.00;44.40;;;;;;5052133;28;20057;-10
2022/09/30 06:42:42;;;;;;;1.20;1.10;;;22.00;44.30;;;;;;5052200;28;20080;-10
2022/09/30 06:45:10;;;;;;;1.33;1.23;;;22.00;44.20;;;;;;5033776;28;20065;-11
2022/09/30 06:47:35;;;;;;;1.17;0.98;;;22.00;44.10;;;;;;5051849;28;20076;-10
2022/09/30 06:50:01;;;;;;;1.10;1.00;;;22.00;44.00;;;;;;5051843;28;20086;-10
2022/09/30 06:52:27;;;;;;;1.33;1.23;;;22.10;44.00;;;;;;5050627;28;20049;-10
2022/09/30 06:54:55;;;;;;;1.25;1.13;;;22.10;43.90;;;;;;5052058;28;20053;-11
2022/09/30 06:57:26;;;;;;;1.30;1.20;;;22.10;43.90;;;;;;5051614;28;20049;-12
2022/09/30 06:59:53;;;;;;;;;;;22.20;43.90;;;;;;5052106;28;20080;-11
2022/09/30 07:02:19;;;;;;;1.98;1.38;;;22.20;43.80;;;;;;5051763;28;20312;-11
2022/09/30 07:04:46;;;;;;;1.55;1.30;;;22.20;43.80;;;;;;5051730;28;20105;-11
2022/09/30 07:07:11;;;;;;;0.93;0.93;;;22.20;43.70;;;;;;5051904;28;20048;-11
2022/09/30 07:09:37;;;;;;;1.20;1.10;;;22.20;43.70;;;;;;5051656;28;20053;-11
2022/09/30 07:12:05;;;;;;;1.42;1.17;;;22.30;43.60;;;;;;5051713;28;20053;-11
2022/09/30 07:14:30;;;;;;;1.38;1.20;;;22.30;43.50;;;;;;5051573;28;20134;-11
2022/09/30 07:16:56;;;;;;;1.05;0.95;;;22.30;43.50;;;;;;5051596;28;20057;-11
2022/09/30 07:19:22;;;;;;;1.17;1.08;;;22.40;43.50;;;;;;5051560;28;20103;-12
2022/09/30 07:21:48;;;;;;;1.40;1.30;;;22.40;43.30;;;;;;5051421;28;20482;-11
2022/09/30 07:24:15;;;;;;;1.10;1.00;;;22.50;43.30;;;;;;5051855;28;20477;-11
2022/09/30 07:26:40;;;;;;;1.00;0.90;;;22.50;43.30;;;;;;5051481;28;20513;-11
2022/09/30 07:29:06;;;;;;;1.52;0.90;;;22.50;43.20;;;;;;5051755;28;20045;-11
2022/09/30 07:31:32;;;;;;;1.10;1.10;;;22.50;43.80;;;;;;5051269;28;20060;-11
2022/09/30 07:33:58;;;;;;;1.20;1.10;;;22.50;43.30;;;;;;5050896;28;20057;-12
2022/09/30 07:36:29;;;;;;;0.90;0.90;;;22.40;43.20;;;;;;5050558;28;20371;-12
2022/09/30 07:38:55;;;;;;;1.10;1.00;;;22.50;43.30;;;;;;5051260;28;20059;-11
2022/09/30 07:41:25;;;;;;;0.77;0.77;;;22.40;43.20;;;;;;5051586;28;20566;-12
2022/09/30 07:43:53;;;;;;;1.60;1.00;;;22.40;43.30;;;;;;5051604;28;20060;-12
2022/09/30 07:46:30;;;;;;;1.40;1.27;;;22.40;43.30;;;;;;5051109;28;20041;-11
2022/09/30 07:49:01;;;;;;;1.23;1.13;;;22.40;43.40;;;;;;5051033;28;20056;-11
2022/09/30 07:51:30;;;;;;;1.35;1.15;;;22.30;43.40;;;;;;5051020;28;20508;-11
2022/09/30 07:53:59;;;;;;;1.55;1.30;;;22.30;43.40;;;;;;5050934;28;20052;-11
2022/09/30 07:56:26;;;;;;;1.48;1.05;;;22.30;43.50;;;;;;5050976;28;20579;-11
2022/09/30 07:58:55;;;;;;;1.27;0.90;;;22.20;43.60;;;;;;5051076;28;20437;-11
2022/09/30 08:01:23;;;;;;;1.40;1.30;;;22.20;43.60;;;;;;5051019;28;20041;-11
2022/09/30 08:03:52;;;;;;;1.33;1.20;;;22.20;43.70;;;;;;5050873;28;20148;-11
2022/09/30 08:06:18;;;;;;;1.23;1.13;;;22.20;43.90;;;;;;5051135;28;20053;-12
2022/09/30 08:08:45;;;;;;;1.77;0.82;;;22.10;43.80;;;;;;5050571;28;20053;-11
2022/09/30 08:11:13;;;;;;;1.02;0.90;;;22.10;43.90;;;;;;5031389;28;20490;-11
2022/09/30 08:13:39;;;;;;;1.13;1.00;;;22.00;43.90;;;;;;5049750;28;20139;-11
2022/09/30 08:16:05;;;;;;;2.25;1.13;;;22.00;44.00;;;;;;5050773;28;20049;-12
2022/09/30 08:18:31;;;;;;;1.65;1.20;;;22.00;44.10;;;;;;5050754;28;20052;-11
2022/09/30 08:21:03;;;;;;;0.98;0.98;;;21.90;44.10;;;;;;5050008;28;20057;-12
2022/09/30 08:23:29;;;;;;;1.45;1.00;;;21.90;44.10;;;;;;5051010;28;20056;-11
2022/09/30 08:26:06;;;;;;;1.00;1.00;;;21.90;44.20;;;;;;5050656;28;20057;-11
2022/09/30 08:28:32;;;;;;;0.95;0.85;;;21.80;44.20;;;;;;5050966;28;20489;-11
2022/09/30 08:31:10;;;;;;;1.27;1.00;;;21.80;44.30;;;;;;5050955;28;20045;-11
2022/09/30 08:33:37;;;;;;;1.10;1.00;;;21.80;44.40;;;;;;5050818;28;20691;-10
2022/09/30 08:36:04;;;;;;;1.00;0.90;;;21.70;44.40;;;;;;5050390;28;20053;-9
2022/09/30 08:38:30;;;;;;;1.52;1.42;;;21.70;44.50;;;;;;5050465;28;20135;-12
2022/09/30 08:41:35;;;;;;;1.00;0.93;;;21.70;44.50;;;;;;5050418;28;20137;-12
2022/09/30 08:44:22;;;;;;;1.95;1.05;;;21.60;44.60;;;;;;5053644;28;20074;-11
2022/09/30 08:47:30;;;;;;;1.05;0.95;;;21.60;44.60;;;;;;5049858;28;20406;-12
2022/09/30 08:50:01;;;;;;;1.20;1.10;;;21.60;44.70;;;;;;5050511;28;20051;-11
2022/09/30 08:52:47;;;;;;;1.25;1.10;;;21.50;44.70;;;;;;5050170;28;20049;-11
2022/09/30 08:55:22;;;;;;;1.20;1.10;;;21.50;44.80;;;;;;5050704;28;20126;-11
2022/09/30 08:57:50;;;;;;;1.70;1.25;;;21.50;44.80;;;;;;5050069;28;20405;-12
2022/09/30 09:00:17;;;;;;;1.27;1.17;;;21.50;44.90;;;;;;5050166;28;20402;-11
2022/09/30 09:02:58;;;;;;;1.88;1.38;;;21.50;44.90;;;;;;5049941;28;20053;-11
2022/09/30 09:05:34;;;;;;;1.17;1.07;;;21.50;45.00;;;;;;5049230;28;20079;-11
2022/09/30 09:08:10;;;;;;;1.02;1.00;;;21.40;45.00;;;;;;5050018;28;20053;-12
2022/09/30 09:10:54;;;;;;;1.27;1.10;;;21.40;45.00;;;;;;5049562;28;20053;-12
2022/09/30 09:13:37;;;;;;;1.30;1.20;;;21.40;45.10;;;;;;5049140;28;20045;-11
2022/09/30 09:16:21;;;;;;;1.25;1.10;;;21.40;45.10;;;;;;5049838;28;20131;-11
2022/09/30 09:18:53;;;;;;;1.33;1.20;;;21.40;45.00;;;;;;5050014;28;20517;-11
2022/09/30 09:21:46;;;;;;;1.25;1.15;;;21.40;45.10;;;;;;5049753;28;20063;-12
2022/09/30 09:24:18;;;;;;;1.95;1.25;;;21.40;45.10;;;;;;5049669;28;20120;-11
2022/09/30 09:26:43;;;;;;;1.23;1.13;;;21.40;45.10;;;;;;5050018;28;20406;-11
2022/09/30 09:29:44;;;;;;;1.23;1.08;;;21.40;45.10;;;;;;5049512;28;20049;-11
2022/09/30 09:32:16;;;;;;;0.95;0.80;;;21.50;45.10;;;;;;5049343;28;20053;-11
2022/09/30 09:34:42;;;;;;;1.92;1.27;;;21.50;45.10;;;;;;5049930;28;20097;-11
2022/09/30 09:38:23;;;;;;;1.40;1.30;;;21.50;45.10;;;;;;5049778;28;20418;-11
2022/09/30 09:40:55;;;;;;;1.83;1.48;;;21.50;45.10;;;;;;5049338;28;20502;-11
2022/09/30 09:43:51;;;;;;;1.52;1.40;;;21.50;45.00;;;;;;5049571;28;20056;-11
2022/09/30 09:46:25;;;;;;;2.13;1.40;;;21.60;45.00;;;;;;5049625;28;20068;-11
2022/09/30 09:49:22;;;;;;;2.25;1.45;;;21.60;45.10;;;;;;5049660;28;20056;-11
2022/09/30 09:52:24;;;;;;;1.42;1.33;;;21.50;45.00;;;;;;5053379;28;20049;-11
2022/09/30 09:54:51;;;;;;;1.45;1.30;;;21.50;45.10;;;;;;5050313;28;20517;-11
2022/09/30 09:57:23;;;;;;;1.48;1.38;;;21.50;45.10;;;;;;5049228;28;20045;-12
2022/09/30 09:59:59;;;;;;;1.30;1.20;;;21.50;45.00;;;;;;5048862;28;20128;-11
2022/09/30 10:02:28;;;;;;;2.03;1.17;;;21.60;45.10;;;;;;5049620;28;20076;-11
2022/09/30 10:05:00;;;;;;;1.45;1.10;;;21.60;45.10;;;;;;5049329;28;20084;-11
2022/09/30 10:07:31;;;;;;;1.95;1.50;;;21.60;45.10;;;;;;5049314;28;20047;-11
2022/09/30 10:10:08;;;;;;;2.22;1.25;;;21.60;45.10;;;;;;5049498;28;20510;-11
2022/09/30 10:12:34;;;;;;;1.30;1.20;;;21.60;45.10;;;;;;5049317;28;20053;-12
2022/09/30 10:15:04;;;;;;;1.63;1.17;;;21.60;45.60;;;;;;5049118;28;20053;-12
2022/09/30 10:17:36;;;;;;;1.48;1.20;;;21.60;45.00;;;;;;5047905;28;20049;-12
2022/09/30 10:20:23;;;;;;;2.28;1.40;;;21.60;45.00;;;;;;5048716;28;20076;-9
2022/09/30 10:22:49;;;;;;;1.50;1.40;;;21.60;45.00;;;;;;5048777;28;20049;-11
2022/09/30 10:25:19;;;;;;;3.40;1.77;;;21.60;45.00;;;;;;5049042;28;20506;-10
2022/09/30 10:27:51;;;;;;;1.60;1.33;;;21.60;45.00;;;;;;5048719;28;20056;-11
2022/09/30 10:30:43;;;;;;;2.05;1.40;;;21.60;45.00;;;;;;5049035;28;20118;-11
2022/09/30 10:33:19;;;;;;;1.30;1.10;;;21.70;45.00;;;;;;5049081;28;20049;-11
2022/09/30 10:35:59;;;;;;;1.40;1.25;;;21.70;44.90;;;;;;5048554;28;20053;-10
2022/09/30 10:38:28;;;;;;;1.52;1.20;;;21.60;44.90;;;;;;5048620;28;20049;-11
2022/09/30 10:40:55;;;;;;;2.72;1.45;;;21.70;45.00;;;;;;5048805;28;20049;-11
2022/09/30 10:43:29;;;;;;;1.50;1.40;;;21.70;45.00;;;;;;5048470;28;20510;-11
2022/09/30 10:45:58;;;;;;;1.75;1.35;;;21.70;45.10;;;;;;5049026;28;20406;-11
2022/09/30 10:48:28;;;;;;;1.42;1.27;;;21.70;45.00;;;;;;5048428;28;20076;-11
2022/09/30 10:50:55;;;;;;;1.83;1.55;;;21.70;45.00;;;;;;5048672;28;20056;-10
2022/09/30 10:53:28;;;;;;;2.35;1.45;;;21.70;44.90;;;;;;5048495;28;20101;-11
2022/09/30 10:55:56;;;;;;;1.63;1.40;;;21.70;45.00;;;;;;5048530;28;20065;-11
2022/09/30 10:58:34;;;;;;;1.40;1.30;;;21.70;44.90;;;;;;5047703;28;20410;-10
2022/09/30 11:01:31;;;;;;;1.48;1.27;;;21.70;44.90;;;;;;5048532;28;20140;-11
2022/09/30 11:04:10;;;;;;;1.50;1.40;;;21.70;44.90;;;;;;5056486;28;20049;-11
2022/09/30 11:06:41;;;;;;;1.55;1.30;;;21.70;44.90;;;;;;5048207;28;20128;-10
2022/09/30 11:09:33;;;;;;;1.60;1.45;;;21.70;44.90;;;;;;5048040;28;20152;-11
2022/09/30 11:12:11;;;;;;;2.28;1.63;;;21.70;44.90;;;;;;5050052;28;20053;-11
2022/09/30 11:15:05;;;;;;;2.22;1.55;;;21.70;44.90;;;;;;5051001;28;20049;-10
2022/09/30 11:17:48;;;;;;;1.63;1.40;;;21.70;44.90;;;;;;5051115;28;20109;-11
2022/09/30 11:20:37;;;;;;;1.52;1.40;;;21.70;45.00;;;;;;5051406;28;20045;-10
2022/09/30 11:23:14;;;;;;;3.55;1.65;;;21.70;45.00;;;;;;5050914;28;20498;-10
2022/09/30 11:25:53;;;;;;;3.17;1.60;;;21.70;45.10;;;;;;5051062;28;20064;-10
2022/09/30 11:28:39;;;;;;;2.90;1.55;;;21.60;45.10;;;;;;5050784;28;20134;-11
2022/09/30 11:31:31;;;;;;;2.22;1.45;;;21.60;45.20;;;;;;5050985;28;20132;-11
2022/09/30 11:33:56;;;;;;;;;;;21.60;45.20;;;;;;5051188;28;20045;-10
2022/09/30 11:36:36;;;;;;;1.40;1.15;;;21.60;45.20;;;;;;5050588;28;20258;-11
2022/09/30 11:39:33;;;;;;;1.95;1.50;;;21.60;45.10;;;;;;5050562;28;20044;-10
2022/09/30 11:42:55;;;;;;;1.58;1.25;;;21.70;45.10;;;;;;5051084;28;20057;-11
2022/09/30 11:45:42;;;;;;;1.60;1.45;;;21.70;45.10;;;;;;5071578;28;20067;-10
2022/09/30 11:48:36;;;;;;;1.83;1.42;;;21.70;45.10;;;;;;5071884;28;20044;-11
2022/09/30 11:51:23;;;;;;;2.80;1.45;;;21.60;45.10;;;;;;5051641;28;20144;-11
2022/09/30 11:54:18;;;;;;;2.95;1.52;;;21.70;45.20;;;;;;5050906;28;20055;-11
2022/09/30 11:57:00;;;;;;;1.60;1.50;;;21.70;45.20;;;;;;5050603;28;20060;-10
2022/09/30 11:59:32;;;;;;;2.53;1.50;;;21.60;45.10;;;;;;5050632;28;20075;-10
2022/09/30 12:02:01;;;;;;;2.05;1.75;;;21.70;45.20;;;;;;5050456;28;20084;-10
2022/09/30 12:04:42;;;;;;;3.38;1.48;;;21.60;45.20;;;;;;5050147;28;20148;-10
2022/09/30 12:07:19;;;;;;;2.90;1.50;;;21.70;45.20;;;;;;5050675;28;20075;-10
2022/09/30 12:09:50;;;;;;;1.73;1.60;;;21.70;45.20;;;;;;5048712;28;20088;-10
2022/09/30 12:12:17;;;;;;;2.72;1.30;;;21.70;45.10;;;;;;5048112;28;20045;-10
2022/09/30 12:14:49;;;;;;;2.20;1.23;;;21.70;45.20;;;;;;5050403;28;20181;-10
2022/09/30 12:17:28;;;;;;;1.27;1.17;;;21.70;45.20;;;;;;5050403;28;20053;-10
2022/09/30 12:19:57;;;;;;;1.30;1.20;;;21.60;45.20;;;;;;5050723;28;20049;-10
2022/09/30 12:22:30;;;;;;;1.48;1.30;;;21.60;45.30;;;;;;5050180;28;20060;-11
2022/09/30 12:24:56;;;;;;;1.63;1.25;;;21.60;45.30;;;;;;5050747;28;20048;-11
2022/09/30 12:27:44;;;;;;;4.60;1.30;;;21.60;45.30;;;;;;5050089;28;20051;-11
2022/09/30 12:30:20;;;;;;;3.38;1.50;;;21.60;45.40;;;;;;5050223;28;20414;-11
2022/09/30 12:32:59;;;;;;;1.45;1.30;;;21.60;45.40;;;;;;5050247;28;20064;-11
2022/09/30 12:35:49;;;;;;;3.05;1.15;;;21.60;45.50;;;;;;5050663;28;20041;-10
2022/09/30 12:38:25;;;;;;;1.67;1.58;;;21.50;45.50;;;;;;5049560;28;20060;-10
2022/09/30 12:41:14;;;;;;;2.40;1.48;;;21.50;45.50;;;;;;5050028;28;20162;-11
2022/09/30 12:43:50;;;;;;;2.47;1.73;;;21.50;45.50;;;;;;5053167;28;20517;-11
2022/09/30 12:46:19;;;;;;;1.50;1.40;;;21.50;45.60;;;;;;5049876;28;20072;-10
2022/09/30 12:49:08;;;;;;;2.42;1.20;;;21.50;45.60;;;;;;5050333;28;20095;-10
2022/09/30 12:51:40;;;;;;;1.58;1.40;;;21.40;45.60;;;;;;5050092;28;20053;-10
2022/09/30 12:54:29;;;;;;;1.55;1.45;;;21.50;45.70;;;;;;5050053;28;20049;-10
2022/09/30 12:57:00;;;;;;;1.92;1.30;;;21.50;46.20;;;;;;5050368;28;20128;-10
2022/09/30 12:59:32;;;;;;;2.90;1.38;;;21.50;45.70;;;;;;5050113;28;20053;-10
2022/09/30 13:02:00;;;;;;;2.00;1.50;;;21.50;45.60;;;;;;5050045;28;20049;-11
2022/09/30 13:04:38;;;;;;;1.58;1.20;;;21.50;45.60;;;;;;5049697;28;20048;-10
2022/09/30 13:07:10;;;;;;;1.63;1.40;;;21.50;45.60;;;;;;5049497;28;20053;-10
2022/09/30 13:09:55;;;;;;;2.20;1.33;;;21.50;45.60;;;;;;5050369;28;20182;-11
2022/09/30 13:12:26;;;;;;;2.13;1.30;;;21.50;45.60;;;;;;5050192;28;20510;-10
2022/09/30 13:15:27;;;;;;;1.20;1.05;;;21.50;45.60;;;;;;5050252;28;20049;-11
2022/09/30 13:17:53;;;;;;;1.42;1.27;;;21.50;45.70;;;;;;5049495;28;20056;-10
2022/09/30 13:21:14;;;;;;;1.42;1.20;;;21.50;45.70;;;;;;5049623;28;20060;-11
2022/09/30 13:23:43;;;;;;;1.58;1.48;;;21.50;45.70;;;;;;5049822;28;20117;-12